createdAt,value
2022-09-15T00:01:22.524Z,98830.97
2022-09-15T00:03:26.907Z,98826.64
2022-09-15T00:05:31.221Z,98821.67
2022-09-15T00:07:35.602Z,98823.14
2022-09-15T00:09:39.903Z,98820.59
2022-09-15T00:11:44.257Z,98822.36
2022-09-15T00:13:48.602Z,98807.07
2022-09-15T00:15:52.919Z,98796.55
2022-09-15T00:17:57.274Z,98787.51
2022-09-15T00:20:01.595Z,98783.02
2022-09-15T00:22:05.981Z,98777.83
2022-09-15T00:24:10.276Z,98771.86
2022-09-15T00:26:14.639Z,98770.72
2022-09-15T00:28:18.972Z,98774.06
2022-09-15T00:30:23.298Z,98772.07
2022-09-15T00:32:27.603Z,98777.56
2022-09-15T00:34:31.969Z,98774.3
2022-09-15T00:36:36.237Z,98778.59
2022-09-15T00:38:40.538Z,98782.31
2022-09-15T00:40:44.899Z,98790.48
2022-09-15T00:42:49.207Z,98796.11
2022-09-15T00:44:53.539Z,98796.61
2022-09-15T00:47:20.054Z,98794.92
2022-09-15T00:49:24.440Z,98796.55
2022-09-15T00:51:28.761Z,98798.13
2022-09-15T00:53:33.099Z,98799
2022-09-15T00:55:37.389Z,98796.2
2022-09-15T00:57:41.745Z,98798.58
2022-09-15T00:59:46.005Z,98799.23
2022-09-15T01:01:50.504Z,98801.15
2022-09-15T01:03:54.906Z,98791.83
2022-09-15T01:05:59.191Z,98794.09
2022-09-15T01:08:03.502Z,98796.86
2022-09-15T01:10:07.781Z,98796.8
2022-09-15T01:12:12.136Z,98796.97
2022-09-15T01:14:16.436Z,98797.03
2022-09-15T01:16:33.381Z,98799.34
2022-09-15T01:18:37.793Z,98798.19
2022-09-15T01:20:42.123Z,98793.65
2022-09-15T01:22:46.442Z,98795.05
2022-09-15T01:24:50.807Z,98792.93
2022-09-15T01:26:55.156Z,98790.45
2022-09-15T01:28:59.492Z,98786.77
2022-09-15T01:31:03.802Z,98786.95
2022-09-15T01:33:08.119Z,98784.99
2022-09-15T01:35:12.450Z,98790.86
2022-09-15T01:37:16.769Z,98795.02
2022-09-15T01:39:21.093Z,98797.73
2022-09-15T01:41:25.397Z,98797.04
2022-09-15T01:43:29.743Z,98793.59
2022-09-15T01:45:34.152Z,98792.86
2022-09-15T01:47:38.659Z,98792.3
2022-09-15T01:49:42.968Z,98789.95
2022-09-15T01:51:47.274Z,98790.29
2022-09-15T01:53:51.853Z,98787.25
2022-09-15T01:55:56.179Z,98781.89
2022-09-15T01:58:00.464Z,98784.74
2022-09-15T02:00:05.839Z,98789.45
2022-09-15T02:02:10.245Z,98790.28
2022-09-15T02:04:14.705Z,98792.81
2022-09-15T02:06:18.987Z,98795.83
2022-09-15T02:08:23.283Z,98795.17
2022-09-15T02:10:27.611Z,98792.51
2022-09-15T02:12:32.008Z,98799.34
2022-09-15T02:14:36.308Z,98798.44
2022-09-15T02:16:40.855Z,98800.36
2022-09-15T02:18:45.284Z,98809.44
2022-09-15T02:20:49.669Z,98816.14
2022-09-15T02:22:53.982Z,98813.99
2022-09-15T02:24:58.303Z,98818.81
2022-09-15T02:27:02.669Z,98819.25
2022-09-15T02:29:06.989Z,98822.95
2022-09-15T02:31:11.409Z,98826.36
2022-09-15T02:33:15.802Z,98825.17
2022-09-15T02:35:20.123Z,98821.86
2022-09-15T02:37:24.417Z,98823.72
2022-09-15T02:39:28.813Z,98826.92
2022-09-15T02:41:33.177Z,98825.61
2022-09-15T02:43:37.481Z,98828.33
2022-09-15T02:45:41.943Z,98819.79
2022-09-15T02:47:46.495Z,98821.92
2022-09-15T02:49:50.814Z,98826.01
2022-09-15T02:51:55.126Z,98823.41
2022-09-15T02:53:59.388Z,98821.47
2022-09-15T02:56:03.725Z,98819.83
2022-09-15T02:58:08.042Z,98820.6
2022-09-15T03:00:12.388Z,98823.05
2022-09-15T03:02:16.866Z,98824.33
2022-09-15T03:04:21.266Z,98824.95
2022-09-15T03:06:25.581Z,98825.7
2022-09-15T03:08:29.861Z,98823.43
2022-09-15T03:10:34.187Z,98825.3
2022-09-15T03:12:38.493Z,98827.5
2022-09-15T03:14:42.776Z,98829.5
2022-09-15T03:16:47.309Z,98841.7
2022-09-15T03:18:51.734Z,98844.77
2022-09-15T03:20:56.025Z,98850.38
2022-09-15T03:23:00.374Z,98850.59
2022-09-15T03:25:04.651Z,98852.72
2022-09-15T03:27:08.997Z,98849.22
2022-09-15T03:29:13.304Z,98849.23
2022-09-15T03:31:17.757Z,98852.84
2022-09-15T03:33:22.177Z,98869.97
2022-09-15T03:35:26.525Z,98872.78
2022-09-15T03:37:30.856Z,98877.22
2022-09-15T03:39:35.124Z,98868.55
2022-09-15T03:41:39.507Z,98871.39
2022-09-15T03:43:43.791Z,98874.1
2022-09-15T03:45:48.210Z,98884.61
2022-09-15T03:47:52.684Z,98893.23
2022-09-15T03:49:57.021Z,98899.75
2022-09-15T03:52:01.319Z,98908.76
2022-09-15T03:54:05.661Z,98909.06
2022-09-15T03:56:09.949Z,98909.97
2022-09-15T03:58:14.254Z,98912.11
2022-09-15T04:00:18.565Z,98904.83
2022-09-15T04:02:22.990Z,98895.95
2022-09-15T04:04:27.412Z,98888.84
2022-09-15T04:06:31.735Z,98891.08
2022-09-15T04:08:36.036Z,98892.7
2022-09-15T04:10:40.355Z,98906.43
2022-09-15T04:12:44.662Z,98913.88
2022-09-15T04:14:48.966Z,98912.17
2022-09-15T04:16:53.285Z,98908.48
2022-09-15T04:18:57.593Z,98909.55
2022-09-15T04:21:01.954Z,98921.72
2022-09-15T04:23:06.244Z,98929.42
2022-09-15T04:25:10.608Z,98937.52
2022-09-15T04:27:14.921Z,98929.76
2022-09-15T04:29:19.217Z,98921.34
2022-09-15T04:31:23.748Z,98918.02
2022-09-15T04:33:28.189Z,98918.85
2022-09-15T04:35:32.535Z,98923.33
2022-09-15T04:37:36.825Z,98924.58
2022-09-15T04:39:41.111Z,98923.84
2022-09-15T04:41:45.462Z,98925.95
2022-09-15T04:43:49.815Z,98925.39
2022-09-15T04:45:54.165Z,98930.45
2022-09-15T04:47:58.518Z,98930.28
2022-09-15T04:50:02.812Z,98936.41
2022-09-15T04:52:10.797Z,98944.14
2022-09-15T04:54:15.133Z,98940.16
2022-09-15T04:56:19.468Z,98937.52
2022-09-15T04:58:23.738Z,98946.99
2022-09-15T05:00:28.064Z,98954.27
2022-09-15T05:02:32.528Z,98948.86
2022-09-15T05:04:37.096Z,98943.55
2022-09-15T05:06:41.395Z,98943.85
2022-09-15T05:08:45.825Z,98939.77
2022-09-15T05:10:50.141Z,98938.35
2022-09-15T05:12:54.450Z,98940.56
2022-09-15T05:14:58.721Z,98936.14
2022-09-15T05:17:03.060Z,98944.02
2022-09-15T05:19:07.368Z,98945.27
2022-09-15T05:21:11.671Z,98945.78
2022-09-15T05:23:16.001Z,98947.25
2022-09-15T05:25:20.299Z,98944.94
2022-09-15T05:27:24.631Z,98948.69
2022-09-15T05:29:28.930Z,98958.56
2022-09-15T05:31:33.406Z,98962.17
2022-09-15T05:33:37.807Z,98961.34
2022-09-15T05:35:42.121Z,98961.52
2022-09-15T05:37:46.426Z,98967.32
2022-09-15T05:39:50.975Z,98968.16
2022-09-15T05:41:55.282Z,98973.22
2022-09-15T05:43:59.578Z,98970.27
2022-09-15T05:46:04.009Z,98971.36
2022-09-15T05:48:08.433Z,98966.31
2022-09-15T05:50:12.747Z,98965.59
2022-09-15T05:52:17.022Z,98968.24
2022-09-15T05:54:21.346Z,98973.36
2022-09-15T05:56:25.716Z,98979.11
2022-09-15T05:58:30.020Z,98978.56
2022-09-15T06:00:34.373Z,98977.27
2022-09-15T06:02:38.883Z,98973.45
2022-09-15T06:04:43.324Z,98967.72
2022-09-15T06:06:47.654Z,98976.22
2022-09-15T06:08:59.268Z,98974.14
2022-09-15T06:11:04.532Z,98967.98
2022-09-15T06:13:08.860Z,98969.55
2022-09-15T06:15:13.222Z,98972.33
2022-09-15T06:17:17.613Z,98969.35
2022-09-15T06:19:21.921Z,98965.41
2022-09-15T06:21:26.207Z,98963.47
2022-09-15T06:23:30.509Z,98969.94
2022-09-15T06:25:34.840Z,98973.9
2022-09-15T06:27:39.152Z,98977.48
2022-09-15T06:29:43.440Z,98972.25
2022-09-15T06:31:47.894Z,98977.97
2022-09-15T06:33:52.840Z,98979.36
2022-09-15T06:35:57.776Z,98978.14
2022-09-15T06:38:02.097Z,98979.2
2022-09-15T06:40:06.746Z,98980.97
2022-09-15T06:42:14.814Z,98977.45
2022-09-15T06:44:19.141Z,98976.59
2022-09-15T06:46:23.848Z,98977.72
2022-09-15T06:48:28.270Z,98979.94
2022-09-15T06:50:32.593Z,98986.98
2022-09-15T06:52:36.920Z,98991.51
2022-09-15T06:54:41.297Z,98996.01
2022-09-15T06:56:45.617Z,99000.31
2022-09-15T06:58:49.925Z,98998.97
2022-09-15T07:00:54.337Z,98998.3
2022-09-15T07:02:59.096Z,99002.3
2022-09-15T07:05:03.820Z,98999.32
2022-09-15T07:07:08.190Z,99003.05
2022-09-15T07:09:12.510Z,99003.78
2022-09-15T07:11:16.814Z,99009.8
2022-09-15T07:13:21.163Z,99008.06
2022-09-15T07:15:25.522Z,99016.01
2022-09-15T07:17:29.835Z,99018.53
2022-09-15T07:19:34.145Z,99024.09
2022-09-15T07:21:38.474Z,99025.44
2022-09-15T07:23:42.937Z,99026.2
2022-09-15T07:25:47.303Z,99024.05
2022-09-15T07:27:51.615Z,99026.67
2022-09-15T07:29:55.967Z,99028.38
2022-09-15T07:32:00.436Z,99034.98
2022-09-15T07:34:04.958Z,99038.61
2022-09-15T07:36:09.303Z,99036
2022-09-15T07:38:13.595Z,99041
2022-09-15T07:40:18.211Z,99037.98
2022-09-15T07:42:22.819Z,99044.13
2022-09-15T07:44:27.118Z,99050.75
2022-09-15T07:46:31.460Z,99053.79
2022-09-15T07:48:35.800Z,99056.73
2022-09-15T07:50:40.127Z,99068.25
2022-09-15T07:52:44.547Z,99072.86
2022-09-15T07:54:48.836Z,99071.72
2022-09-15T07:56:53.156Z,99078.89
2022-09-15T07:58:57.596Z,99081.53
2022-09-15T08:01:02.061Z,99078.13
2022-09-15T08:03:06.687Z,99079.77
2022-09-15T08:05:11.016Z,99085.73
2022-09-15T08:07:15.374Z,99095.73
2022-09-15T08:09:19.729Z,99090.88
2022-09-15T08:11:24.049Z,99091.72
2022-09-15T08:13:28.391Z,99095.06
2022-09-15T08:15:32.699Z,99091.38
2022-09-15T08:17:37.032Z,99093.16
2022-09-15T08:19:41.400Z,99098.39
2022-09-15T08:21:45.767Z,99100.14
2022-09-15T08:23:50.118Z,99095.8
2022-09-15T08:25:54.472Z,99095.91
2022-09-15T08:27:58.825Z,99091.77
2022-09-15T08:30:03.366Z,99087.2
2022-09-15T08:32:08.208Z,99086.34
2022-09-15T08:34:12.577Z,99088.05
2022-09-15T08:36:16.927Z,99085.09
2022-09-15T08:38:21.266Z,99085.31
2022-09-15T08:40:25.955Z,99089.93
2022-09-15T08:42:30.646Z,99081.72
2022-09-15T08:44:35.012Z,99076.56
2022-09-15T08:46:39.669Z,99073.88
2022-09-15T08:48:44.178Z,99068.55
2022-09-15T08:50:48.565Z,99072.09
2022-09-15T08:52:52.931Z,99065.72
2022-09-15T08:54:57.303Z,99066.34
2022-09-15T08:57:01.573Z,99060.48
2022-09-15T08:59:06.047Z,99063.18
2022-09-15T09:01:10.711Z,99061.26
2022-09-15T09:03:15.475Z,99059.84
2022-09-15T09:05:19.870Z,99054.8
2022-09-15T09:07:24.208Z,99050.96
2022-09-15T09:09:28.566Z,99050.38
2022-09-15T09:11:32.962Z,99057.03
2022-09-15T09:13:37.266Z,99053.81
2022-09-15T09:15:41.820Z,99053.31
2022-09-15T09:17:46.368Z,99055.75
2022-09-15T09:19:50.654Z,99054.81
2022-09-15T09:21:55.013Z,99047.89
2022-09-15T09:23:59.327Z,99048.59
2022-09-15T09:26:06.431Z,99050.29
2022-09-15T09:28:14.137Z,99062.57
2022-09-15T09:30:18.469Z,99060.93
2022-09-15T09:32:23.210Z,99056.44
2022-09-15T09:34:27.543Z,99049.64
2022-09-15T09:36:31.844Z,99046.95
2022-09-15T09:38:36.183Z,99047.08
2022-09-15T09:40:40.578Z,99052.19
2022-09-15T09:42:44.972Z,99050.35
2022-09-15T09:44:49.337Z,99045.69
2022-09-15T09:46:53.686Z,99052.52
2022-09-15T09:48:58.118Z,99066.5
2022-09-15T09:51:02.439Z,99065.95
2022-09-15T09:53:06.742Z,99062.3
2022-09-15T09:55:11.056Z,99063.26
2022-09-15T09:57:15.426Z,99055.03
2022-09-15T09:59:19.762Z,99056.78
2022-09-15T10:01:24.283Z,99054.47
2022-09-15T10:03:33.842Z,99059.23
2022-09-15T10:05:38.172Z,99058.28
2022-09-15T10:07:42.809Z,99064.48
2022-09-15T10:09:47.122Z,99052.69
2022-09-15T10:11:51.479Z,99043.2
2022-09-15T10:13:55.914Z,99042.19
2022-09-15T10:16:00.357Z,99041.38
2022-09-15T10:18:04.714Z,99041.73
2022-09-15T10:20:09.028Z,99043.91
2022-09-15T10:22:13.422Z,99044.44
2022-09-15T10:24:19.245Z,99044.7
2022-09-15T10:26:23.627Z,99037.97
2022-09-15T10:28:27.980Z,99034.55
2022-09-15T10:30:32.371Z,99039.25
2022-09-15T10:32:36.716Z,99046.11
2022-09-15T10:34:41.003Z,99040.71
2022-09-15T10:36:45.330Z,99042.52
2022-09-15T10:38:49.677Z,99038.59
2022-09-15T10:40:54.012Z,99040.28
2022-09-15T10:42:58.308Z,99047.5
2022-09-15T10:45:02.651Z,99043.05
2022-09-15T10:47:07.197Z,99044.34
2022-09-15T10:49:11.597Z,99042.36
2022-09-15T10:51:15.972Z,99040.84
2022-09-15T10:53:20.283Z,99038.71
2022-09-15T10:55:52.493Z,99038.25
2022-09-15T10:57:57.629Z,99032.61
2022-09-15T11:00:01.935Z,99028.23
2022-09-15T11:02:06.456Z,99030.42
2022-09-15T11:04:10.972Z,99026.06
2022-09-15T11:06:15.317Z,99027.97
2022-09-15T11:08:19.684Z,99031.13
2022-09-15T11:10:23.999Z,99025.72
2022-09-15T11:12:30.642Z,99023.91
2022-09-15T11:14:34.938Z,99030.45
2022-09-15T11:16:39.438Z,99031.2
2022-09-15T11:18:43.980Z,99027.3
2022-09-15T11:20:48.315Z,99022.92
2022-09-15T11:22:52.622Z,99020.16
2022-09-15T11:24:57.089Z,99017.52
2022-09-15T11:27:01.512Z,99017.2
2022-09-15T11:29:05.798Z,99017.36
2022-09-15T11:31:10.327Z,99015.64
2022-09-15T11:33:14.747Z,99013.41
2022-09-15T11:35:19.063Z,99012.39
2022-09-15T11:37:23.396Z,99014.14
2022-09-15T11:39:27.688Z,99015.51
2022-09-15T11:41:32.047Z,99012.28
2022-09-15T11:43:36.348Z,99010.52
2022-09-15T11:45:40.637Z,99011.11
2022-09-15T11:47:44.934Z,99006.14
2022-09-15T11:49:49.252Z,99005.7
2022-09-15T11:51:53.560Z,99002.2
2022-09-15T11:53:57.889Z,99003.52
2022-09-15T11:56:02.198Z,99004.2
2022-09-15T11:58:06.532Z,99002.39
2022-09-15T12:00:10.882Z,99005
2022-09-15T12:02:15.438Z,99000.75
2022-09-15T12:04:19.948Z,98997.75
2022-09-15T12:06:24.308Z,98997.84
2022-09-15T12:08:28.825Z,98997.28
2022-09-15T12:10:33.204Z,99002.02
2022-09-15T12:12:37.507Z,99001.56
2022-09-15T12:14:41.844Z,99001
2022-09-15T12:16:46.162Z,99003.8
2022-09-15T12:18:50.529Z,98991.7
2022-09-15T12:20:54.897Z,98994
2022-09-15T12:22:59.241Z,98988.2
2022-09-15T12:25:03.599Z,98983.47
2022-09-15T12:27:07.937Z,98985.64
2022-09-15T12:29:12.301Z,98987.16
2022-09-15T12:31:16.841Z,98985.01
2022-09-15T12:33:21.294Z,98979.83
2022-09-15T12:35:25.735Z,98978.13
2022-09-15T12:37:30.050Z,98975.36
2022-09-15T12:39:34.411Z,98973.55
2022-09-15T12:41:38.807Z,98975.42
2022-09-15T12:43:43.143Z,98973.08
2022-09-15T12:45:47.495Z,98975.53
2022-09-15T12:47:51.797Z,98970.86
2022-09-15T12:49:56.152Z,98975.53
2022-09-15T12:52:00.478Z,98978.18
2022-09-15T12:54:04.799Z,98973.27
2022-09-15T12:56:09.207Z,98970.48
2022-09-15T12:58:13.511Z,98970.73
2022-09-15T13:00:17.904Z,98972.84
2022-09-15T13:02:22.504Z,98971.31
2022-09-15T13:04:27.164Z,98970.1
2022-09-15T13:06:31.477Z,98969.3
2022-09-15T13:08:35.807Z,98968.59
2022-09-15T13:10:40.115Z,98963.17
2022-09-15T13:12:44.420Z,98966.39
2022-09-15T13:14:48.745Z,98964.99
2022-09-15T13:16:53.093Z,98957.75
2022-09-15T13:18:57.424Z,98959.71
2022-09-15T13:21:02.590Z,98963.92
2022-09-15T13:23:07.043Z,98961.5
2022-09-15T13:25:11.386Z,98958.42
2022-09-15T13:27:15.699Z,98957.19
2022-09-15T13:29:20.046Z,98953.31
2022-09-15T13:31:24.588Z,98954.78
2022-09-15T13:35:12.623Z,98957.05
2022-09-15T13:38:17.294Z,98956.16
2022-09-15T13:40:30.021Z,98963.33
2022-09-15T13:42:34.487Z,98956.16
2022-09-15T13:44:38.857Z,98960.93
2022-09-15T13:46:43.204Z,98961.55
2022-09-15T13:48:47.530Z,98953.23
2022-09-15T13:50:51.858Z,98954.91
2022-09-15T13:52:56.193Z,98951.45
2022-09-15T13:55:00.561Z,98953.27
2022-09-15T13:57:04.922Z,98953.73
2022-09-15T13:59:16.846Z,98949.23
2022-09-15T14:01:22.348Z,98954.45
2022-09-15T14:03:26.726Z,98952.63
2022-09-15T14:05:31.107Z,98955.3
2022-09-15T14:07:35.473Z,98952.68
2022-09-15T14:09:39.837Z,98952.34
2022-09-15T14:11:44.141Z,98954.44
2022-09-15T14:13:48.439Z,98952.73
2022-09-15T14:15:52.747Z,98951.84
2022-09-15T14:17:57.063Z,98951.94
2022-09-15T14:20:01.430Z,98957.69
2022-09-15T14:22:05.820Z,98959.56
2022-09-15T14:24:10.159Z,98962.45
2022-09-15T14:26:14.533Z,98960.66
2022-09-15T14:28:18.887Z,98962.33
2022-09-15T14:30:23.162Z,98960.09
2022-09-15T14:32:27.464Z,98958.3
2022-09-15T14:34:31.782Z,98952.36
2022-09-15T14:36:36.087Z,98951.59
2022-09-15T14:38:40.473Z,98952.59
2022-09-15T14:40:44.931Z,98943.99
2022-09-15T14:42:49.342Z,98949.17
2022-09-15T14:48:11.653Z,98945.84
2022-09-15T14:50:16.002Z,98953.54
2022-09-15T14:52:20.329Z,98952.43
2022-09-15T14:54:24.639Z,98954.46
2022-09-15T14:56:28.935Z,98946.39
2022-09-15T14:58:33.281Z,98940.95
2022-09-15T15:00:37.767Z,98944.66
2022-09-15T15:02:42.342Z,98945.88
2022-09-15T15:04:46.740Z,98948.29
2022-09-15T15:06:51.248Z,98941.83
2022-09-15T15:08:55.662Z,98940.79
2022-09-15T15:11:00.015Z,98940.84
2022-09-15T15:13:04.503Z,98942.87
2022-09-15T15:15:08.886Z,98944.91
2022-09-15T15:17:13.228Z,98943.97
2022-09-15T15:19:17.634Z,98941.7
2022-09-15T15:21:22.007Z,98936.45
2022-09-15T15:23:26.399Z,98942.94
2022-09-15T15:25:30.797Z,98938.71
2022-09-15T15:27:35.150Z,98936.19
2022-09-15T15:29:39.480Z,98936.95
2022-09-15T15:31:43.958Z,98933.66
2022-09-15T15:33:48.400Z,98935.75
2022-09-15T15:35:52.732Z,98936.7
2022-09-15T15:37:57.041Z,98941.35
2022-09-15T15:40:01.844Z,98949.15
2022-09-15T15:42:06.247Z,98946.08
2022-09-15T15:44:10.646Z,98951
2022-09-15T15:46:15.107Z,98947.69
2022-09-15T15:48:19.660Z,98947.61
2022-09-15T15:50:23.970Z,98950.23
2022-09-15T15:52:28.241Z,98950.09
2022-09-15T15:54:32.557Z,98952.01
2022-09-15T15:56:39.090Z,98953.47
2022-09-15T15:58:43.512Z,98953.28
2022-09-15T16:00:48.086Z,98951.78
2022-09-15T16:02:52.586Z,98954.61
2022-09-15T16:04:56.923Z,98952.38
2022-09-15T16:07:01.286Z,98954.41
2022-09-15T16:09:05.612Z,98955.14
2022-09-15T16:11:10.023Z,98959.79
2022-09-15T16:13:14.433Z,98957.91
2022-09-15T16:15:18.806Z,98959.67
2022-09-15T16:17:23.189Z,98958.48
2022-09-15T16:19:27.538Z,98959.5
2022-09-15T16:21:31.906Z,98955.73
2022-09-15T16:23:36.209Z,98957.11
2022-09-15T16:25:40.545Z,98960.19
2022-09-15T16:27:44.920Z,98957.69
2022-09-15T16:29:49.244Z,98964.16
2022-09-15T16:31:53.814Z,98963.92
2022-09-15T16:33:58.423Z,98969.28
2022-09-15T16:36:02.757Z,98979.06
2022-09-15T16:38:07.205Z,98977.91
2022-09-15T16:40:11.804Z,98978.71
2022-09-15T16:42:16.392Z,98980.46
2022-09-15T16:44:20.691Z,98981.63
2022-09-15T16:46:25.225Z,98980.73
2022-09-15T16:48:29.808Z,98978.58
2022-09-15T16:50:34.264Z,98977.13
2022-09-15T16:52:39.127Z,98975.77
2022-09-15T16:54:44.448Z,98976.48
2022-09-15T16:56:48.917Z,98972.44
2022-09-15T16:59:00.746Z,98966.67
2022-09-15T17:01:05.656Z,98973.05
2022-09-15T17:03:10.764Z,98982.84
2022-09-15T17:05:15.218Z,98983.36
2022-09-15T17:07:19.758Z,98983.71
2022-09-15T17:09:24.075Z,98980.44
2022-09-15T17:11:28.607Z,98983.63
2022-09-15T17:13:33.104Z,98982.63
2022-09-15T17:15:37.865Z,98975.33
2022-09-15T17:17:42.291Z,98985.3
2022-09-15T17:19:46.538Z,98987.62
2022-09-15T17:21:50.898Z,98985.21
2022-09-15T17:23:55.295Z,98980.39
2022-09-15T17:25:59.707Z,98984.19
2022-09-15T17:28:04.087Z,98989.5
2022-09-15T17:30:08.431Z,98990.45
2022-09-15T17:32:12.792Z,98995.3
2022-09-15T17:34:17.145Z,98999.02
2022-09-15T17:36:21.714Z,98999.49
2022-09-15T17:38:26.165Z,98999.59
2022-09-15T17:40:30.710Z,99001.16
2022-09-15T17:42:35.784Z,99000.14
2022-09-15T17:44:40.207Z,98992.24
2022-09-15T17:46:44.833Z,98994.72
2022-09-15T17:48:49.532Z,99001.81
2022-09-15T17:50:53.921Z,99008.61
2022-09-15T17:52:58.519Z,99008.7
2022-09-15T17:55:03.201Z,99007.59
2022-09-15T17:57:07.691Z,99011.41
2022-09-15T17:59:17.306Z,99009.86
2022-09-15T18:01:21.911Z,99013.97
2022-09-15T18:03:26.548Z,99018.18
2022-09-15T18:05:31.405Z,99022.92
2022-09-15T18:07:35.752Z,99023.92
2022-09-15T18:09:40.831Z,99021.27
2022-09-15T18:11:45.569Z,99027.47
2022-09-15T18:13:50.335Z,99030.74
2022-09-15T18:15:56.079Z,99028.61
2022-09-15T18:18:00.654Z,99028.55
2022-09-15T18:20:05.826Z,99026.7
2022-09-15T18:22:10.206Z,99031.36
2022-09-15T18:24:15.356Z,99041.38
2022-09-15T18:26:27.001Z,99038.77
2022-09-15T18:28:32.396Z,99039
2022-09-15T18:30:36.851Z,99041.66
2022-09-15T18:32:41.987Z,99041.91
2022-09-15T18:34:46.659Z,99043.13
2022-09-15T18:36:52.189Z,99051.16
2022-09-15T18:38:56.835Z,99046.52
2022-09-15T18:41:01.797Z,99046.64
2022-09-15T18:43:06.843Z,99046.6
2022-09-15T18:45:11.419Z,99046.88
2022-09-15T18:47:15.882Z,99055.7
2022-09-15T18:49:20.553Z,99060.8
2022-09-15T18:51:51.408Z,99063.5
2022-09-15T18:53:56.449Z,99063.81
2022-09-15T18:56:01.603Z,99063.07
2022-09-15T18:58:06.350Z,99059.45
2022-09-15T19:00:11.150Z,99060.2
2022-09-15T19:02:16.053Z,99059.5
2022-09-15T19:04:20.844Z,99061.87
2022-09-15T19:06:25.168Z,99062.78
2022-09-15T19:08:29.489Z,99063.67
2022-09-15T19:10:34.092Z,99069.47
2022-09-15T19:12:38.449Z,99065.63
2022-09-15T19:14:47.636Z,99068.02
2022-09-15T19:16:59.401Z,99071.56
2022-09-15T19:19:03.865Z,99074.8
2022-09-15T19:21:08.323Z,99076.78
2022-09-15T19:23:12.673Z,99079.65
2022-09-15T19:25:16.996Z,99081.36
2022-09-15T19:27:21.344Z,99085.23
2022-09-15T19:29:25.774Z,99086.58
2022-09-15T19:31:30.132Z,99082.37
2022-09-15T19:33:34.552Z,99076.99
2022-09-15T19:35:38.920Z,99080.03
2022-09-15T19:37:43.351Z,99079.39
2022-09-15T19:39:47.952Z,99076.45
2022-09-15T19:41:52.414Z,99080.66
2022-09-15T19:43:56.780Z,99081.95
2022-09-15T19:46:01.417Z,99085.06
2022-09-15T19:48:05.916Z,99086.08
2022-09-15T19:50:10.266Z,99086.41
2022-09-15T19:52:14.708Z,99083.29
2022-09-15T19:54:19.071Z,99084.56
2022-09-15T19:56:23.640Z,99085.36
2022-09-15T19:58:28.029Z,99079.13
2022-09-15T20:00:32.421Z,99081.44
2022-09-15T20:02:39.000Z,99088.34
2022-09-15T20:07:32.181Z,99093.3
2022-09-15T20:09:41.811Z,99091.91
2022-09-15T20:11:48.885Z,99090.3
2022-09-15T20:13:55.912Z,99094.27
2022-09-15T20:16:03.365Z,99094.52
2022-09-15T20:18:08.915Z,99096.22
2022-09-15T20:20:20.305Z,99096.5
2022-09-15T20:22:26.061Z,99098.16
2022-09-15T20:24:30.514Z,99097.55
2022-09-15T20:26:35.006Z,99102.38
2022-09-15T20:28:43.221Z,99100.64
2022-09-15T20:30:52.382Z,99098.73
2022-09-15T20:32:59.486Z,99096.55
2022-09-15T20:35:04.734Z,99094.32
2022-09-15T20:37:10.068Z,99102.73
2022-09-15T20:39:15.373Z,99098.56
2022-09-15T20:41:19.828Z,99101.95
2022-09-15T20:43:29.778Z,99098.94
2022-09-15T20:45:38.980Z,99101.63
2022-09-15T20:47:44.243Z,99103.74
2022-09-15T20:49:49.679Z,99101.16
2022-09-15T20:51:55.805Z,99096.79
2022-09-15T20:54:01.165Z,99097.07
2022-09-15T20:56:06.814Z,99095.84
2022-09-15T20:58:12.740Z,99090.18
2022-09-15T21:00:17.996Z,99088.05
2022-09-15T21:02:23.494Z,99090.13
2022-09-15T21:04:28.419Z,99092.97
2022-09-15T21:06:32.876Z,99090.86
2022-09-15T21:08:37.943Z,99098.2
2022-09-15T21:10:42.508Z,99095.15
2022-09-15T21:12:46.953Z,99097.34
2022-09-15T21:14:51.527Z,99098.91
2022-09-15T21:16:56.203Z,99096.95
2022-09-15T21:19:00.644Z,99101.56
2022-09-15T21:21:05.126Z,99099.55
2022-09-15T21:23:09.563Z,99101.22
2022-09-15T21:25:14.058Z,99108.16
2022-09-15T21:27:18.493Z,99107.64
2022-09-15T21:29:22.911Z,99107.94
2022-09-15T21:31:27.557Z,99110.98
2022-09-15T21:33:32.139Z,99108.64
2022-09-15T21:35:36.576Z,99112.23
2022-09-15T21:37:41.003Z,99111.29
2022-09-15T21:39:45.414Z,99114.16
2022-09-15T21:41:49.891Z,99115.8
2022-09-15T21:43:54.409Z,99121.77
2022-09-15T21:45:59.423Z,99117.38
2022-09-15T21:48:03.985Z,99119.47
2022-09-15T21:50:08.425Z,99117.86
2022-09-15T21:52:12.843Z,99118.66
2022-09-15T21:54:17.312Z,99122.28
2022-09-15T21:56:21.773Z,99120.48
2022-09-15T21:58:27.214Z,99121.54
2022-09-15T22:00:31.667Z,99128.59
2022-09-15T22:02:36.158Z,99127.2
2022-09-15T22:04:40.660Z,99129.63
2022-09-15T22:06:45.115Z,99130.53
2022-09-15T22:08:49.555Z,99134.28
2022-09-15T22:10:54.026Z,99132
2022-09-15T22:12:58.460Z,99131.93
2022-09-15T22:15:02.948Z,99135.27
2022-09-15T22:17:07.403Z,99138.89
2022-09-15T22:19:11.826Z,99138
2022-09-15T22:21:16.266Z,99141.31
2022-09-15T22:23:20.743Z,99141.28
2022-09-15T22:25:25.247Z,99145.33
2022-09-15T22:27:29.675Z,99148.56
2022-09-15T22:29:34.126Z,99156.84
2022-09-15T22:31:38.951Z,99163.27
2022-09-15T22:33:43.479Z,99168.23
2022-09-15T22:35:47.937Z,99164.03
2022-09-15T22:37:52.422Z,99165.75
2022-09-15T22:40:00.811Z,99160.81
2022-09-15T22:42:05.465Z,99162.38
2022-09-15T22:44:09.963Z,99161.86
2022-09-15T22:46:14.650Z,99162.11
2022-09-15T22:48:19.203Z,99165.39
2022-09-15T22:50:23.655Z,99165.61
2022-09-15T22:52:28.094Z,99162.75
2022-09-15T22:54:32.519Z,99167.19
2022-09-15T22:56:37.010Z,99171.28
2022-09-15T22:58:41.446Z,99168.52
2022-09-15T23:00:46.097Z,99172.63
2022-09-15T23:02:51.721Z,99175.35
2022-09-15T23:04:56.166Z,99173.13
2022-09-15T23:07:00.513Z,99168.94
2022-09-15T23:09:04.844Z,99167.33
2022-09-15T23:11:09.242Z,99166.49
2022-09-15T23:13:13.563Z,99167.52
2022-09-15T23:15:17.866Z,99165.47
2022-09-15T23:17:22.174Z,99161.21
2022-09-15T23:19:26.501Z,99163.58
2022-09-15T23:21:30.807Z,99165.8
2022-09-15T23:23:35.134Z,99162.84
2022-09-15T23:25:39.462Z,99160.11
2022-09-15T23:27:43.771Z,99166.64
2022-09-15T23:29:48.079Z,99164.54
2022-09-15T23:31:52.528Z,99161.73
2022-09-15T23:33:57.006Z,99165.85
2022-09-15T23:36:01.325Z,99161.44
2022-09-15T23:38:05.699Z,99168
2022-09-15T23:40:10.172Z,99161.41
2022-09-15T23:42:19.642Z,99168.61
2022-09-15T23:44:23.956Z,99165.63
2022-09-15T23:46:28.509Z,99172.52
2022-09-15T23:48:33.052Z,99168.81
2022-09-15T23:50:37.405Z,99168.7
2022-09-15T23:52:41.779Z,99171.02
2022-09-15T23:54:46.089Z,99175.02
2022-09-15T23:56:50.396Z,99177.78
2022-09-15T23:58:54.714Z,99183.44
